Time;durP1;ratioP1;P1;durP2;ratioP2;P2;SDS_P1;SDS_P2;PMS_P1;PMS_P2;Temp;Humidity;BMP_temperature;BMP_pressure;BME280_temperature;BME280_humidity;BME280_pressure;Samples;Min_cycle;Max_cycle;Signal;HPM_P1;HPM_P2
2021/11/02 00:01:16;;;;;;;0.20;0.10;;;15.00;99.90;;;;;;20454008;28;20682;-69
2021/11/02 00:11:21;;;;;;;0.20;0.00;;;15.20;99.90;;;;;;20500314;28;20233;-68
2021/11/02 00:21:28;;;;;;;0.20;0.10;;;15.00;99.90;;;;;;20498558;28;20201;-68
2021/11/02 00:31:32;;;;;;;0.20;0.03;;;14.70;99.90;;;;;;20498196;28;20256;-68
2021/11/02 00:41:38;;;;;;;0.20;0.00;;;14.60;99.90;;;;;;20495855;28;20623;-68
2021/11/02 00:51:42;;;;;;;0.20;0.10;;;14.60;99.90;;;;;;20465114;28;20283;-69
2021/11/02 01:01:47;;;;;;;0.20;0.07;;;14.60;99.90;;;;;;20472236;23;20244;-70
2021/11/02 01:11:51;;;;;;;0.20;0.10;;;14.50;99.90;;;;;;20399884;29;20225;-71
2021/11/02 01:21:56;;;;;;;0.20;0.10;;;14.50;99.90;;;;;;20399396;29;20205;-71
2021/11/02 01:32:00;;;;;;;0.20;0.10;;;14.50;99.90;;;;;;20399504;29;20239;-71
2021/11/02 01:42:05;;;;;;;0.20;0.03;;;14.00;99.90;;;;;;20416330;29;20649;-68
2021/11/02 01:52:09;;;;;;;0.20;0.10;;;13.60;99.90;;;;;;20415022;29;20580;-70
2021/11/02 02:02:25;;;;;;;0.20;0.10;;;13.20;99.90;;;;;;20398391;29;20644;-69
2021/11/02 02:12:44;;;;;;;0.20;0.10;;;12.90;99.90;;;;;;20413698;29;20231;-69
2021/11/02 02:23:15;;;;;;;0.20;0.10;;;13.40;99.90;;;;;;20415873;29;20620;-70
2021/11/02 02:33:23;;;;;;;0.20;0.10;;;13.80;99.90;;;;;;20425955;29;20251;-69
2021/11/02 02:43:28;;;;;;;0.20;0.10;;;13.80;99.90;;;;;;20425453;29;20643;-69
2021/11/02 02:53:36;;;;;;;0.20;0.10;;;13.60;99.90;;;;;;20409369;29;20229;-68
2021/11/02 03:03:45;;;;;;;0.20;0.10;;;13.70;99.90;;;;;;20409797;29;20233;-69
2021/11/02 03:13:53;;;;;;;0.20;0.07;;;13.50;99.90;;;;;;20424329;29;20230;-70
2021/11/02 03:45:04;;;;;;;0.20;0.10;;;12.80;99.90;;;;;;20386188;29;20211;-69
2021/11/02 03:55:10;;;;;;;0.20;0.10;;;13.20;99.90;;;;;;20420977;29;20761;-69
2021/11/02 05:49:50;;;;;;;0.20;0.10;;;13.20;99.90;;;;;;20414045;29;20691;-71
2021/11/02 05:59:59;;;;;;;0.20;0.10;;;13.20;99.90;;;;;;20413723;29;20221;-69
2021/11/02 06:10:16;;;;;;;0.20;0.10;;;13.20;99.90;;;;;;20427792;29;20691;-70
2021/11/02 06:30:51;;;;;;;0.20;0.10;;;12.50;99.90;;;;;;20437801;29;20648;-70
2021/11/02 06:51:50;;;;;;;0.20;0.10;;;12.60;99.90;;;;;;20422202;29;20239;-71
2021/11/02 07:23:03;;;;;;;0.20;0.10;;;12.80;99.90;;;;;;20421703;29;20208;-70
2021/11/02 08:46:05;;;;;;;0.20;0.10;;;14.60;99.90;;;;;;20495773;28;20295;-70
2021/11/02 08:56:09;;;;;;;0.20;0.10;;;14.60;99.90;;;;;;20476415;28;20224;-70
2021/11/02 09:06:16;;;;;;;0.20;0.10;;;14.90;99.90;;;;;;20494404;28;20268;-69
2021/11/02 09:16:21;;;;;;;0.20;0.07;;;15.30;99.90;;;;;;20492975;28;20258;-70
2021/11/02 09:26:28;;;;;;;0.20;0.10;;;15.40;99.90;;;;;;20412698;29;20301;-70
2021/11/02 09:36:40;;;;;;;0.20;0.10;;;15.60;99.90;;;;;;20419266;29;20237;-70
2021/11/02 09:47:10;;;;;;;0.20;0.00;;;15.80;99.90;;;;;;20455037;29;20297;-70
2021/11/02 09:57:35;;;;;;;0.20;0.10;;;16.30;99.90;;;;;;20417882;29;20237;-69
2021/11/02 10:08:01;;;;;;;0.20;0.10;;;16.40;99.90;;;;;;20346718;29;20707;-69
2021/11/02 10:18:47;;;;;;;0.20;0.03;;;16.90;99.90;;;;;;20348084;29;20202;-70
2021/11/02 10:29:30;;;;;;;0.20;0.10;;;17.20;99.90;;;;;;20347007;29;20245;-70
2021/11/02 10:39:50;;;;;;;0.20;0.10;;;17.20;99.90;;;;;;20387244;29;20205;-71
2021/11/02 10:50:06;;;;;;;0.20;0.10;;;17.50;99.90;;;;;;20405910;29;20320;-71
2021/11/02 11:00:12;;;;;;;0.20;0.00;;;18.20;99.90;;;;;;20424565;29;20311;-71
2021/11/02 11:10:18;;;;;;;0.20;0.00;;;18.70;99.90;;;;;;20422721;29;20499;-70
2021/11/02 11:20:24;;;;;;;0.20;0.00;;;18.80;99.90;;;;;;20421714;29;20225;-69
2021/11/02 11:30:30;;;;;;;0.20;0.00;;;19.90;99.90;;;;;;20421921;29;20393;-71
2021/11/02 11:40:38;;;;;;;0.20;0.00;;;20.90;99.90;;;;;;20357190;29;20241;-71
2021/11/02 11:50:43;;;;;;;0.20;0.10;;;20.90;99.90;;;;;;20342070;29;20229;-70
2021/11/02 12:00:51;;;;;;;0.20;0.10;;;20.50;99.90;;;;;;20341053;29;20230;-70
2021/11/02 12:11:03;;;;;;;0.20;0.10;;;20.60;99.90;;;;;;20339852;29;20236;-71
2021/11/02 12:21:15;;;;;;;0.20;0.00;;;20.60;99.90;;;;;;20339246;29;20253;-69
2021/11/02 12:31:25;;;;;;;0.20;0.00;;;21.00;99.90;;;;;;20336862;29;20226;-72
2021/11/02 12:41:31;;;;;;;0.20;0.00;;;21.10;99.90;;;;;;20407468;29;20287;-71
2021/11/02 12:51:45;;;;;;;0.20;0.00;;;21.60;99.90;;;;;;20415815;29;20225;-70
2021/11/02 13:01:51;;;;;;;0.20;0.00;;;21.60;99.90;;;;;;20414878;29;20225;-71
2021/11/02 13:12:04;;;;;;;0.20;0.00;;;20.30;99.90;;;;;;20413016;29;20299;-70
2021/11/02 13:22:15;;;;;;;0.20;0.00;;;20.80;99.90;;;;;;20397296;29;20198;-70
2021/11/02 13:32:20;;;;;;;0.20;0.00;;;21.20;99.90;;;;;;20410265;29;20642;-72
2021/11/02 13:42:47;;;;;;;0.20;0.10;;;22.70;99.90;;;;;;20383697;29;20621;-71
2021/11/02 13:52:52;;;;;;;0.20;0.00;;;22.50;99.90;;;;;;20413560;29;20728;-68
2021/11/02 14:03:03;;;;;;;0.20;0.00;;;23.00;99.90;;;;;;20413227;29;20261;-70
2021/11/02 14:13:07;;;;;;;0.20;0.00;;;22.50;99.90;;;;;;20412385;29;20268;-71
2021/11/02 14:23:21;;;;;;;0.20;0.08;;;21.60;99.90;;;;;;20414310;29;20194;-71
2021/11/02 14:33:45;;;;;;;0.20;0.00;;;22.10;99.90;;;;;;20425429;29;20427;-70
2021/11/02 14:43:50;;;;;;;0.20;0.00;;;21.10;99.90;;;;;;20426471;29;20554;-69
2021/11/02 14:53:57;;;;;;;0.20;0.00;;;20.20;99.90;;;;;;20423802;29;20239;-69
2021/11/02 15:04:06;;;;;;;0.20;0.10;;;20.90;99.90;;;;;;20420963;29;20324;-69
2021/11/02 15:14:12;;;;;;;0.20;0.10;;;19.60;99.90;;;;;;20423366;29;20233;-69
2021/11/02 15:24:23;;;;;;;0.20;0.10;;;19.20;99.90;;;;;;20421681;29;20233;-69
2021/11/02 15:34:35;;;;;;;0.20;0.03;;;19.00;99.90;;;;;;20386044;29;20321;-69
2021/11/02 15:44:40;;;;;;;0.20;0.10;;;19.00;99.90;;;;;;20402528;29;20236;-69
2021/11/02 15:54:46;;;;;;;0.20;0.00;;;18.80;99.90;;;;;;20419028;29;20268;-70
2021/11/02 16:05:04;;;;;;;0.20;0.00;;;18.40;99.90;;;;;;20416842;29;20324;-70
2021/11/02 16:15:14;;;;;;;0.20;0.00;;;18.10;99.90;;;;;;20419077;29;20225;-70
2021/11/02 16:25:19;;;;;;;0.20;0.10;;;18.10;99.90;;;;;;20416020;29;20193;-67
2021/11/02 16:35:41;;;;;;;0.20;0.10;;;17.90;99.90;;;;;;20414816;29;20230;-71
2021/11/02 16:45:50;;;;;;;0.20;0.10;;;17.50;99.90;;;;;;20414342;29;20228;-71
2021/11/02 16:55:56;;;;;;;0.20;0.10;;;17.40;99.90;;;;;;20413831;29;20229;-69
2021/11/02 17:06:11;;;;;;;0.20;0.00;;;17.30;99.90;;;;;;20413086;29;20707;-70
2021/11/02 17:16:17;;;;;;;0.27;0.27;;;17.20;99.90;;;;;;20413033;29;20308;-71
2021/11/02 17:26:25;;;;;;;0.20;0.10;;;17.30;99.90;;;;;;20396004;29;20674;-70
2021/11/02 17:36:29;;;;;;;0.20;0.10;;;17.20;99.90;;;;;;20411770;29;20232;-70
2021/11/02 17:46:34;;;;;;;0.20;0.10;;;17.20;99.90;;;;;;20412148;29;20209;-72
2021/11/02 17:56:39;;;;;;;0.20;0.10;;;17.10;99.90;;;;;;20399312;29;20305;-70
2021/11/02 18:06:45;;;;;;;0.20;0.10;;;17.00;99.90;;;;;;20427267;29;20589;-70
2021/11/02 18:16:50;;;;;;;0.20;0.00;;;16.90;99.90;;;;;;20426716;29;20240;-70
2021/11/02 18:26:56;;;;;;;0.20;0.10;;;16.80;99.90;;;;;;20408369;29;20200;-69
2021/11/02 18:37:02;;;;;;;0.20;0.03;;;16.70;99.90;;;;;;20425515;29;20237;-70
2021/11/02 18:47:08;;;;;;;0.20;0.10;;;16.70;99.90;;;;;;20424642;29;20212;-68
2021/11/02 18:57:12;;;;;;;0.20;0.10;;;16.50;99.90;;;;;;20424741;29;20312;-68
2021/11/02 19:07:17;;;;;;;0.20;0.10;;;16.50;99.90;;;;;;20423535;29;20269;-69
2021/11/02 19:17:20;;;;;;;0.20;0.10;;;16.40;99.90;;;;;;20341382;29;20226;-67
2021/11/02 19:27:27;;;;;;;0.20;0.10;;;16.30;99.90;;;;;;20343016;29;20202;-68
2021/11/02 19:37:31;;;;;;;0.20;0.10;;;16.30;99.90;;;;;;20391407;29;20331;-69
2021/11/02 19:47:36;;;;;;;0.20;0.00;;;16.10;99.90;;;;;;20429205;28;20671;-71
2021/11/02 19:57:40;;;;;;;0.20;0.10;;;16.00;99.90;;;;;;20403288;29;20236;-71
2021/11/02 20:07:47;;;;;;;0.20;0.00;;;15.80;99.90;;;;;;20358130;29;20259;-71
2021/11/02 20:17:52;;;;;;;0.20;0.10;;;15.70;99.90;;;;;;20361630;29;20238;-69
2021/11/02 20:27:59;;;;;;;0.20;0.10;;;15.90;99.90;;;;;;20411897;29;20260;-69
2021/11/02 20:38:06;;;;;;;0.20;0.10;;;16.00;99.90;;;;;;20411130;29;20243;-69
2021/11/02 20:48:18;;;;;;;0.20;0.10;;;15.80;99.90;;;;;;20410139;29;20198;-69
2021/11/02 20:58:27;;;;;;;0.20;0.10;;;15.80;99.90;;;;;;20402391;29;20229;-69
2021/11/02 21:08:34;;;;;;;0.20;0.10;;;15.60;99.90;;;;;;20409782;29;20317;-69
2021/11/02 21:18:40;;;;;;;0.20;0.10;;;15.60;99.90;;;;;;20413367;29;20320;-70
2021/11/02 21:28:47;;;;;;;0.20;0.10;;;15.40;99.90;;;;;;20395535;29;20623;-69
2021/11/02 21:38:50;;;;;;;0.20;0.10;;;15.40;99.90;;;;;;20426779;29;20488;-69
2021/11/02 21:49:09;;;;;;;0.20;0.10;;;15.20;99.90;;;;;;20488033;29;20204;-69
2021/11/02 21:59:17;;;;;;;0.20;0.10;;;15.10;99.90;;;;;;20505873;29;20201;-69
2021/11/02 22:09:22;;;;;;;0.20;0.10;;;15.00;99.90;;;;;;20502836;29;20256;-69
2021/11/02 22:19:26;;;;;;;0.20;0.10;;;14.90;99.90;;;;;;20504294;29;20232;-69
2021/11/02 22:29:32;;;;;;;0.20;0.10;;;14.80;99.90;;;;;;20444970;29;20313;-70
2021/11/02 22:39:37;;;;;;;0.20;0.10;;;14.70;99.90;;;;;;20405146;29;20197;-70
2021/11/02 22:49:45;;;;;;;0.20;0.00;;;14.40;99.90;;;;;;20423399;29;20213;-69
2021/11/02 22:59:49;;;;;;;0.20;0.10;;;14.10;99.90;;;;;;20409313;29;20232;-71
2021/11/02 23:09:54;;;;;;;0.20;0.10;;;13.70;99.90;;;;;;20407663;29;20225;-70
2021/11/02 23:19:57;;;;;;;0.20;0.10;;;13.40;99.90;;;;;;20406980;29;20205;-69
2021/11/02 23:30:04;;;;;;;0.20;0.00;;;13.40;99.90;;;;;;20422915;29;20617;-68
2021/11/02 23:40:12;;;;;;;0.20;0.10;;;13.50;99.90;;;;;;20349183;29;20292;-70
2021/11/02 23:50:18;;;;;;;0.20;0.03;;;13.80;99.90;;;;;;20343873;29;20281;-70
